Time;durP1;ratioP1;P1;durP2;ratioP2;P2;SDS_P1;SDS_P2;PMS_P1;PMS_P2;Temp;Humidity;BMP_temperature;BMP_pressure;BME280_temperature;BME280_humidity;BME280_pressure;Samples;Min_cycle;Max_cycle;Signal;HPM_P1;HPM_P2
2024/02/16 00:00:36;;;;;;;3.75;1.60;;;22.70;56.90;;;;;;6119903;22;88189;-62
2024/02/16 00:03:02;;;;;;;3.83;2.00;;;22.80;56.90;;;;;;6122981;22;88622;-61
2024/02/16 00:05:46;;;;;;;3.58;1.75;;;22.70;56.90;;;;;;6122870;22;86973;-60
2024/02/16 00:08:13;;;;;;;3.30;1.80;;;22.70;56.90;;;;;;6122246;22;89575;-60
2024/02/16 00:10:38;;;;;;;4.75;2.03;;;22.70;57.00;;;;;;6150540;22;87778;-60
2024/02/16 00:13:04;;;;;;;4.85;1.95;;;22.60;56.90;;;;;;6147770;22;88540;-60
2024/02/16 00:15:30;;;;;;;4.60;1.90;;;22.60;56.90;;;;;;6120152;22;87637;-60
2024/02/16 00:17:56;;;;;;;4.32;1.75;;;22.60;56.90;;;;;;6150259;22;88078;-62
2024/02/16 00:20:23;;;;;;;3.17;2.05;;;22.60;56.90;;;;;;6152258;22;87287;-61
2024/02/16 00:22:49;;;;;;;3.60;1.75;;;22.60;56.90;;;;;;6124891;22;86936;-62
2024/02/16 00:25:15;;;;;;;3.60;1.80;;;22.60;57.00;;;;;;6151880;22;86962;-61
2024/02/16 00:27:41;;;;;;;3.75;1.75;;;22.60;57.00;;;;;;6124116;22;88179;-61
2024/02/16 00:33:11;;;;;;;3.80;2.03;;;22.60;57.10;;;;;;6152055;22;87683;-60
2024/02/16 00:35:55;;;;;;;3.20;1.83;;;22.50;57.00;;;;;;6147995;22;87647;-61
2024/02/16 00:38:22;;;;;;;3.85;2.05;;;22.50;56.90;;;;;;6150585;22;88943;-61
2024/02/16 00:40:48;;;;;;;3.63;1.88;;;22.50;56.90;;;;;;6151485;22;88483;-61
2024/02/16 00:43:15;;;;;;;3.72;1.75;;;22.50;57.00;;;;;;6124484;22;87270;-61
2024/02/16 00:46:02;;;;;;;2.83;1.63;;;22.50;57.00;;;;;;6147307;22;86864;-61
2024/02/16 00:48:27;;;;;;;4.13;1.85;;;22.40;56.90;;;;;;6124284;22;87489;-60
2024/02/16 00:50:53;;;;;;;4.63;1.85;;;22.40;57.00;;;;;;6151439;22;87668;-60
2024/02/16 00:53:19;;;;;;;4.13;1.73;;;22.40;57.10;;;;;;6151355;22;87235;-61
2024/02/16 00:55:45;;;;;;;3.97;1.98;;;22.40;57.00;;;;;;6151927;22;87991;-62
2024/02/16 00:58:10;;;;;;;4.30;1.70;;;22.40;57.00;;;;;;6151395;22;88069;-61
2024/02/16 01:00:36;;;;;;;3.95;1.70;;;22.40;57.00;;;;;;6151666;22;87286;-60
2024/02/16 01:03:02;;;;;;;3.33;1.48;;;22.40;57.00;;;;;;6117637;22;88721;-60
2024/02/16 01:05:28;;;;;;;3.45;1.92;;;22.40;57.10;;;;;;6150798;22;87298;-61
2024/02/16 01:07:54;;;;;;;3.00;1.77;;;22.40;57.00;;;;;;6151637;22;87401;-60
2024/02/16 01:10:20;;;;;;;4.05;1.77;;;22.30;56.90;;;;;;6124890;22;88659;-60
2024/02/16 01:15:30;;;;;;;4.07;2.13;;;22.30;57.10;;;;;;6143418;22;87243;-61
2024/02/16 01:17:59;;;;;;;3.20;1.80;;;22.30;57.20;;;;;;6151509;22;88100;-61
2024/02/16 01:20:25;;;;;;;3.13;1.95;;;22.30;57.10;;;;;;6124627;22;89330;-60
2024/02/16 01:23:09;;;;;;;3.20;1.40;;;22.30;57.20;;;;;;6126133;22;87490;-61
2024/02/16 01:25:36;;;;;;;2.25;1.40;;;22.30;57.20;;;;;;6129502;22;90928;-60
2024/02/16 01:28:01;;;;;;;3.70;1.95;;;22.30;57.00;;;;;;6099358;22;94164;-60
2024/02/16 01:30:27;;;;;;;3.22;1.77;;;22.20;57.00;;;;;;6123943;22;89203;-61
2024/02/16 01:32:53;;;;;;;3.20;2.28;;;22.20;57.00;;;;;;6151913;22;87579;-61
2024/02/16 01:35:19;;;;;;;3.65;1.73;;;22.20;57.10;;;;;;6149896;22;87473;-60
2024/02/16 01:37:45;;;;;;;3.33;1.45;;;22.20;57.20;;;;;;6125162;22;89590;-60
2024/02/16 01:42:55;;;;;;;3.42;2.17;;;22.20;57.10;;;;;;6151865;22;87288;-61
2024/02/16 01:45:40;;;;;;;3.28;2.08;;;22.20;57.30;;;;;;6123132;22;87773;-61
2024/02/16 01:48:06;;;;;;;3.25;1.88;;;22.20;57.40;;;;;;6123800;22;89074;-60
2024/02/16 01:50:33;;;;;;;2.60;1.65;;;22.10;57.20;;;;;;6124637;22;88488;-61
2024/02/16 01:52:59;;;;;;;3.03;1.65;;;22.20;57.20;;;;;;6150608;22;87970;-60
2024/02/16 01:55:26;;;;;;;2.75;1.38;;;22.10;57.30;;;;;;6150082;22;87378;-61
2024/02/16 01:58:11;;;;;;;4.35;2.00;;;22.20;57.20;;;;;;6151120;22;88057;-60
2024/02/16 02:00:55;;;;;;;2.25;1.40;;;22.10;57.00;;;;;;6147182;22;87735;-60
2024/02/16 02:06:43;;;;;;;2.85;1.92;;;22.10;57.10;;;;;;6150029;22;87187;-60
2024/02/16 02:09:09;;;;;;;2.33;1.60;;;22.10;56.90;;;;;;6125330;22;88806;-60
2024/02/16 02:11:37;;;;;;;2.33;1.45;;;22.10;57.10;;;;;;6124773;22;88590;-61
2024/02/16 02:14:03;;;;;;;4.50;2.08;;;22.10;57.10;;;;;;6123327;22;87559;-60
2024/02/16 02:16:29;;;;;;;3.42;1.67;;;22.10;57.00;;;;;;6123738;22;87465;-61
2024/02/16 02:18:55;;;;;;;3.35;1.92;;;22.10;57.00;;;;;;6148747;22;88892;-61
2024/02/16 02:21:22;;;;;;;2.28;1.73;;;22.00;57.10;;;;;;6123581;22;89694;-61
2024/02/16 02:23:48;;;;;;;2.50;1.60;;;22.00;57.00;;;;;;6124773;22;86997;-62
2024/02/16 02:26:16;;;;;;;3.30;1.67;;;22.00;56.90;;;;;;6152080;22;86833;-61
2024/02/16 02:28:42;;;;;;;2.60;1.40;;;22.10;57.00;;;;;;6149788;22;88604;-60
2024/02/16 02:31:09;;;;;;;2.58;1.58;;;22.00;57.00;;;;;;6150461;22;87557;-60
2024/02/16 02:33:36;;;;;;;2.88;1.75;;;22.00;57.00;;;;;;6151036;22;87344;-62
2024/02/16 02:36:04;;;;;;;2.38;1.40;;;22.00;57.00;;;;;;6108636;22;86931;-61
2024/02/16 02:38:31;;;;;;;3.38;1.80;;;22.00;57.10;;;;;;6149730;22;88045;-60
2024/02/16 02:40:57;;;;;;;2.58;1.50;;;22.00;57.00;;;;;;6152413;22;87725;-61
2024/02/16 02:43:23;;;;;;;1.95;1.42;;;22.00;57.10;;;;;;6088784;23;88065;-60
2024/02/16 02:45:51;;;;;;;3.03;1.95;;;22.00;57.10;;;;;;6111112;22;87786;-60
2024/02/16 02:48:35;;;;;;;2.65;1.60;;;22.00;57.00;;;;;;6124056;22;90445;-60
2024/02/16 02:51:01;;;;;;;2.55;1.38;;;21.90;56.90;;;;;;6151003;22;87817;-61
2024/02/16 02:53:29;;;;;;;2.22;1.40;;;21.90;57.00;;;;;;6150642;22;87223;-61
2024/02/16 02:55:54;;;;;;;1.85;1.17;;;21.90;57.00;;;;;;6151299;22;87405;-61
2024/02/16 02:58:20;;;;;;;3.13;1.48;;;21.90;57.10;;;;;;6150080;22;88069;-60
2024/02/16 03:00:46;;;;;;;1.60;1.35;;;21.90;57.20;;;;;;6123452;22;88558;-61
2024/02/16 03:03:13;;;;;;;2.97;1.50;;;21.90;56.90;;;;;;6118495;22;87415;-61
2024/02/16 03:05:42;;;;;;;2.67;1.70;;;21.90;56.90;;;;;;6150563;22;86989;-61
2024/02/16 03:08:10;;;;;;;2.22;1.88;;;21.90;56.90;;;;;;6148899;22;88898;-61
2024/02/16 03:10:36;;;;;;;3.25;1.70;;;21.90;57.10;;;;;;6152277;22;88718;-60
2024/02/16 03:13:03;;;;;;;3.58;1.70;;;21.90;57.00;;;;;;6151452;22;86954;-60
2024/02/16 03:15:29;;;;;;;1.85;1.20;;;21.90;57.20;;;;;;6121948;22;87842;-60
2024/02/16 03:17:58;;;;;;;2.78;1.65;;;21.90;57.20;;;;;;6120165;22;88730;-60
2024/02/16 03:20:24;;;;;;;;;;;21.90;57.20;;;;;;6122382;22;88546;-60
2024/02/16 03:22:50;;;;;;;1.90;1.45;;;21.90;57.10;;;;;;6152900;22;86906;-61
2024/02/16 03:25:15;;;;;;;2.17;1.42;;;21.90;57.20;;;;;;6152157;22;86766;-61
2024/02/16 03:27:42;;;;;;;2.00;1.70;;;21.80;57.50;;;;;;6150522;22;87517;-59
2024/02/16 03:30:08;;;;;;;3.00;1.73;;;21.80;56.90;;;;;;6151020;22;87763;-61
2024/02/16 03:32:35;;;;;;;2.60;1.40;;;21.80;56.90;;;;;;6146397;22;88721;-61
2024/02/16 03:35:02;;;;;;;2.85;1.65;;;21.80;57.00;;;;;;6121386;22;89374;-59
2024/02/16 03:37:27;;;;;;;3.45;1.52;;;21.80;57.10;;;;;;6123097;22;88440;-61
2024/02/16 03:39:53;;;;;;;2.53;1.30;;;21.80;57.10;;;;;;6150463;22;87559;-60
2024/02/16 03:42:20;;;;;;;2.55;1.55;;;21.80;57.00;;;;;;6152049;22;87421;-60
2024/02/16 03:44:46;;;;;;;3.55;1.90;;;21.80;57.10;;;;;;6151756;22;86886;-61
2024/02/16 03:47:12;;;;;;;1.73;1.30;;;21.80;57.10;;;;;;6153191;22;87387;-61
2024/02/16 03:49:39;;;;;;;2.05;1.40;;;21.80;57.20;;;;;;6153561;22;88535;-61
2024/02/16 03:52:05;;;;;;;2.72;1.40;;;21.80;57.00;;;;;;6150648;22;87453;-60
2024/02/16 03:54:33;;;;;;;2.30;1.27;;;21.80;57.00;;;;;;6100008;22;87677;-61
2024/02/16 03:56:59;;;;;;;1.90;1.33;;;21.70;57.00;;;;;;6124177;22;89224;-61
2024/02/16 03:59:26;;;;;;;2.05;1.52;;;21.80;57.10;;;;;;6099837;22;89396;-61
2024/02/16 04:01:52;;;;;;;3.33;1.90;;;21.70;57.00;;;;;;6153097;22;87336;-60
2024/02/16 04:07:03;;;;;;;2.72;1.33;;;21.70;57.10;;;;;;6136570;22;87762;-60
2024/02/16 04:09:30;;;;;;;1.83;1.27;;;21.80;57.10;;;;;;6150509;22;87694;-61
2024/02/16 04:14:59;;;;;;;2.63;1.60;;;21.70;57.10;;;;;;6152285;22;86508;-62
2024/02/16 04:17:26;;;;;;;3.58;1.33;;;21.70;56.70;;;;;;6151343;22;87637;-61
2024/02/16 04:22:37;;;;;;;2.92;1.45;;;21.70;56.90;;;;;;6151601;22;88220;-60
2024/02/16 04:25:04;;;;;;;2.80;1.65;;;21.70;57.10;;;;;;6150676;22;87139;-61
2024/02/16 04:27:30;;;;;;;1.70;1.20;;;21.70;57.00;;;;;;6122753;22;89063;-61
2024/02/16 04:29:55;;;;;;;3.25;1.67;;;21.70;57.10;;;;;;6123632;22;88252;-61
2024/02/16 04:32:25;;;;;;;2.30;1.50;;;21.70;57.80;;;;;;6146589;22;87222;-60
2024/02/16 04:34:55;;;;;;;2.13;1.33;;;21.70;57.10;;;;;;6151512;22;87304;-61
2024/02/16 04:40:06;;;;;;;3.70;1.30;;;21.60;56.90;;;;;;6151374;22;86901;-61
2024/02/16 04:42:32;;;;;;;3.03;1.83;;;21.60;56.90;;;;;;6152025;22;87596;-60
2024/02/16 04:44:58;;;;;;;2.30;1.30;;;21.60;56.80;;;;;;6149938;22;87223;-60
2024/02/16 04:47:27;;;;;;;1.65;1.27;;;21.60;56.80;;;;;;6119256;22;89528;-61
2024/02/16 04:50:12;;;;;;;2.33;1.30;;;21.60;56.90;;;;;;6125685;22;87892;-61
2024/02/16 04:52:40;;;;;;;1.83;1.40;;;21.60;56.70;;;;;;6097305;22;87279;-61
2024/02/16 04:55:07;;;;;;;1.40;1.10;;;21.60;56.80;;;;;;6150830;22;87271;-60
2024/02/16 04:57:33;;;;;;;1.88;1.23;;;21.60;56.90;;;;;;6124424;22;89015;-62
2024/02/16 04:59:59;;;;;;;3.38;1.75;;;21.60;56.90;;;;;;6151919;22;87754;-61
2024/02/16 05:02:25;;;;;;;2.03;1.25;;;21.60;57.00;;;;;;6124184;22;87051;-61
2024/02/16 05:04:52;;;;;;;2.47;1.38;;;21.60;57.00;;;;;;6125037;22;86932;-60
2024/02/16 05:07:19;;;;;;;1.75;1.45;;;21.60;57.10;;;;;;6124814;22;88896;-60
2024/02/16 05:09:45;;;;;;;1.60;1.20;;;21.60;57.10;;;;;;6151151;22;88580;-61
2024/02/16 05:12:29;;;;;;;2.30;1.77;;;21.60;57.00;;;;;;6123572;22;87821;-60
2024/02/16 05:14:56;;;;;;;1.92;1.63;;;21.60;57.00;;;;;;6124571;22;87238;-61
2024/02/16 05:17:24;;;;;;;2.28;1.20;;;21.50;57.00;;;;;;6150749;22;88493;-61
2024/02/16 05:19:50;;;;;;;2.05;1.55;;;21.60;57.10;;;;;;6152292;22;87707;-61
2024/02/16 05:22:18;;;;;;;2.22;1.38;;;21.60;56.90;;;;;;6146524;22;87512;-60
2024/02/16 05:25:02;;;;;;;2.95;1.35;;;21.50;57.00;;;;;;6125040;22;86928;-60
2024/02/16 05:27:28;;;;;;;1.60;1.10;;;21.50;57.00;;;;;;6125550;22;88040;-60
2024/02/16 05:29:53;;;;;;;3.10;1.23;;;21.50;57.10;;;;;;6151782;22;87713;-60
2024/02/16 05:32:20;;;;;;;1.50;1.20;;;21.50;57.00;;;;;;6124397;22;86884;-61
2024/02/16 05:34:46;;;;;;;1.75;1.30;;;21.50;57.00;;;;;;6125718;22;87720;-60
2024/02/16 05:37:12;;;;;;;1.92;1.20;;;21.50;57.00;;;;;;6119167;22;89021;-60
2024/02/16 05:39:53;;;;;;;1.88;1.30;;;21.50;57.00;;;;;;6150671;22;87685;-61
2024/02/16 05:42:22;;;;;;;1.90;1.20;;;21.50;57.00;;;;;;6150897;22;86936;-61
2024/02/16 05:44:47;;;;;;;2.20;1.40;;;21.50;56.80;;;;;;6148977;22;87635;-60
2024/02/16 05:47:13;;;;;;;2.20;1.33;;;21.50;57.00;;;;;;6123810;22;88559;-60
2024/02/16 05:49:39;;;;;;;4.32;1.70;;;21.50;56.90;;;;;;6150741;22;88312;-61
2024/02/16 05:52:17;;;;;;;2.33;1.40;;;21.50;56.90;;;;;;6149205;22;87107;-59
2024/02/16 05:54:49;;;;;;;2.63;1.67;;;21.50;56.90;;;;;;6123058;22;87371;-61
2024/02/16 05:57:15;;;;;;;1.45;1.10;;;21.50;57.00;;;;;;6141260;22;88103;-61
2024/02/16 05:59:42;;;;;;;2.33;1.25;;;21.50;57.00;;;;;;6123580;22;88527;-60
2024/02/16 06:02:27;;;;;;;1.95;1.38;;;21.50;57.00;;;;;;6121798;22;88344;-60
2024/02/16 06:07:39;;;;;;;1.17;1.08;;;21.50;57.10;;;;;;6149254;22;92390;-61
2024/02/16 06:10:07;;;;;;;1.90;1.20;;;21.50;57.00;;;;;;6123466;22;89209;-61
2024/02/16 06:15:55;;;;;;;1.30;1.20;;;21.50;57.00;;;;;;6151938;22;87283;-61
2024/02/16 06:21:06;;;;;;;1.73;1.30;;;21.40;56.90;;;;;;6145847;22;87529;-61
2024/02/16 06:26:17;;;;;;;1.42;1.05;;;21.40;56.90;;;;;;6150650;22;87484;-60
2024/02/16 06:28:43;;;;;;;1.75;1.20;;;21.40;56.90;;;;;;6124013;22;89032;-61
2024/02/16 06:31:10;;;;;;;2.10;1.40;;;21.40;56.90;;;;;;6120188;22;89377;-61
2024/02/16 06:33:36;;;;;;;2.33;1.23;;;21.40;56.90;;;;;;6148892;22;87848;-62
2024/02/16 06:38:46;;;;;;;1.50;1.05;;;21.40;56.90;;;;;;6147382;22;87294;-60
2024/02/16 06:41:14;;;;;;;2.17;1.33;;;21.40;57.60;;;;;;6123683;22;88009;-60
2024/02/16 06:43:40;;;;;;;2.83;1.88;;;21.40;56.80;;;;;;6100709;22;87161;-61
2024/02/16 06:46:06;;;;;;;3.70;1.42;;;21.40;57.10;;;;;;6124108;22;86397;-60
2024/02/16 06:48:31;;;;;;;3.53;1.88;;;21.40;57.10;;;;;;6151255;22;87977;-63
2024/02/16 06:50:57;;;;;;;3.38;1.58;;;21.40;57.30;;;;;;6107349;22;88737;-60
2024/02/16 06:53:23;;;;;;;8.15;2.35;;;21.50;57.40;;;;;;6145999;22;88089;-60
2024/02/16 06:55:52;;;;;;;7.07;2.20;;;21.50;57.80;;;;;;6124037;22;87319;-59
2024/02/16 06:58:20;;;;;;;5.78;2.20;;;21.60;58.00;;;;;;6123179;22;88548;-59
2024/02/16 07:00:46;;;;;;;7.80;2.50;;;21.70;58.30;;;;;;6142159;22;87360;-65
2024/02/16 07:03:16;;;;;;;10.32;2.33;;;21.80;58.70;;;;;;6120149;22;87428;-62
2024/02/16 07:05:42;;;;;;;8.98;2.40;;;21.90;58.60;;;;;;6121183;22;87543;-60
2024/02/16 07:08:09;;;;;;;12.32;3.30;;;21.90;58.30;;;;;;6145075;22;89068;-60
2024/02/16 07:10:35;;;;;;;11.40;2.78;;;22.10;58.40;;;;;;6123079;22;87635;-58
2024/02/16 07:13:01;;;;;;;11.57;3.60;;;22.10;58.40;;;;;;6144726;22;87054;-61
2024/02/16 07:15:27;;;;;;;9.88;3.00;;;22.20;58.60;;;;;;6140419;22;87338;-60
2024/02/16 07:20:38;;;;;;;8.52;3.45;;;22.30;58.50;;;;;;6145375;22;87871;-61
2024/02/16 07:23:06;;;;;;;14.48;3.95;;;22.40;58.70;;;;;;6120630;22;87442;-60
2024/02/16 07:25:32;;;;;;;10.18;3.58;;;22.40;58.70;;;;;;6122909;22;87268;-62
2024/02/16 07:28:00;;;;;;;7.55;2.63;;;22.50;58.60;;;;;;6119100;22;87632;-61
2024/02/16 07:30:27;;;;;;;11.70;3.47;;;22.50;58.60;;;;;;6114141;22;88459;-61
2024/02/16 07:32:54;;;;;;;14.77;3.72;;;22.60;58.60;;;;;;6149299;22;87169;-62
2024/02/16 07:38:23;;;;;;;15.55;4.03;;;22.70;58.70;;;;;;6149765;22;87218;-61
2024/02/16 07:40:50;;;;;;;13.40;2.83;;;22.80;58.50;;;;;;6152355;22;87605;-62
2024/02/16 07:43:16;;;;;;;11.68;3.17;;;22.80;58.60;;;;;;6150604;22;88405;-62
2024/02/16 07:45:42;;;;;;;13.27;3.33;;;22.90;58.60;;;;;;6123910;22;88783;-61
2024/02/16 07:51:12;;;;;;;8.65;3.28;;;23.00;58.50;;;;;;6148059;22;87007;-61
2024/02/16 07:53:41;;;;;;;11.52;2.95;;;23.00;58.50;;;;;;6122347;22;87558;-60
2024/02/16 07:56:06;;;;;;;10.30;2.97;;;23.00;58.40;;;;;;6149563;22;87230;-61
2024/02/16 07:58:32;;;;;;;11.77;3.67;;;23.10;58.40;;;;;;6124917;22;88048;-62
2024/02/16 08:01:16;;;;;;;16.95;3.90;;;23.10;58.50;;;;;;6124509;22;87171;-61
2024/02/16 08:04:01;;;;;;;7.18;2.65;;;23.20;58.60;;;;;;6123486;22;86881;-62
2024/02/16 08:06:27;;;;;;;10.30;3.15;;;23.20;58.80;;;;;;6120915;22;87579;-61
2024/02/16 08:08:54;;;;;;;11.00;3.45;;;23.20;58.70;;;;;;6116710;22;89002;-61
2024/02/16 08:11:20;;;;;;;10.05;3.78;;;23.30;58.90;;;;;;6122523;22;88758;-61
2024/02/16 08:14:04;;;;;;;17.52;3.88;;;23.30;58.90;;;;;;6152425;22;87230;-62
2024/02/16 08:16:49;;;;;;;15.27;3.50;;;23.30;58.90;;;;;;6150133;22;91154;-62
2024/02/16 08:19:17;;;;;;;16.08;4.63;;;23.40;59.10;;;;;;6150924;22;88888;-61
2024/02/16 08:21:44;;;;;;;12.52;3.38;;;23.40;59.00;;;;;;6124223;22;87941;-62
2024/02/16 08:24:09;;;;;;;8.15;3.15;;;23.40;59.10;;;;;;6099738;22;88321;-61
2024/02/16 08:26:35;;;;;;;14.02;3.47;;;23.50;59.40;;;;;;6151103;22;86324;-62
2024/02/16 08:29:04;;;;;;;13.07;3.75;;;23.50;59.30;;;;;;6149448;22;88033;-62
2024/02/16 08:31:31;;;;;;;9.60;2.70;;;23.60;59.10;;;;;;6123739;22;88450;-62
2024/02/16 08:33:58;;;;;;;12.52;3.63;;;23.60;58.70;;;;;;6122930;22;88329;-61
2024/02/16 08:36:29;;;;;;;11.13;3.03;;;23.60;58.70;;;;;;6151147;22;87177;-61
2024/02/16 08:38:55;;;;;;;7.63;2.70;;;23.60;58.70;;;;;;6141778;22;88910;-63
2024/02/16 08:41:22;;;;;;;7.97;3.05;;;23.70;58.50;;;;;;6142339;22;88209;-61
2024/02/16 08:43:48;;;;;;;10.48;3.70;;;23.70;58.30;;;;;;6151511;22;87116;-62
2024/02/16 08:46:13;;;;;;;7.80;2.88;;;23.70;58.30;;;;;;6122718;22;87561;-61
2024/02/16 08:48:39;;;;;;;8.85;2.95;;;23.70;58.40;;;;;;6148533;22;87624;-62
2024/02/16 08:51:06;;;;;;;12.45;3.58;;;23.70;58.50;;;;;;6124476;22;87944;-62
2024/02/16 08:53:31;;;;;;;15.27;4.13;;;23.70;58.40;;;;;;6148710;22;87294;-62
2024/02/16 08:55:57;;;;;;;8.57;3.10;;;23.70;58.40;;;;;;6149642;22;87441;-62
2024/02/16 08:58:23;;;;;;;9.00;3.08;;;23.70;58.10;;;;;;6149502;22;88233;-62
2024/02/16 09:00:51;;;;;;;14.38;3.20;;;23.70;57.70;;;;;;6124320;22;89639;-63
2024/02/16 09:03:16;;;;;;;12.13;3.22;;;23.70;57.50;;;;;;6148399;22;87043;-62
2024/02/16 09:05:43;;;;;;;8.93;3.53;;;23.70;56.90;;;;;;6147560;22;87411;-61
2024/02/16 09:08:09;;;;;;;11.32;2.67;;;23.70;56.60;;;;;;6119019;22;88383;-63
2024/02/16 09:10:36;;;;;;;9.82;2.90;;;23.70;56.10;;;;;;6124772;22;88818;-62
2024/02/16 09:13:04;;;;;;;8.10;3.80;;;23.70;56.50;;;;;;6149962;22;86946;-63
2024/02/16 09:15:33;;;;;;;12.57;2.90;;;23.70;56.20;;;;;;6118825;22;89065;-61
2024/02/16 09:18:00;;;;;;;10.18;3.20;;;23.70;56.20;;;;;;6112989;22;89187;-64
2024/02/16 09:20:26;;;;;;;12.35;3.60;;;23.70;56.50;;;;;;6117584;22;87879;-63
2024/02/16 09:22:53;;;;;;;10.20;3.17;;;23.70;56.50;;;;;;6149602;22;88442;-64
2024/02/16 09:25:19;;;;;;;10.35;3.08;;;23.70;56.60;;;;;;6147748;22;87632;-65
2024/02/16 09:27:45;;;;;;;9.35;2.75;;;23.70;56.70;;;;;;6143627;22;87922;-66
2024/02/16 09:30:12;;;;;;;9.45;2.83;;;23.70;56.60;;;;;;6143617;22;87792;-65
2024/02/16 09:32:42;;;;;;;19.42;2.72;;;23.80;56.30;;;;;;6143792;22;86909;-70
2024/02/16 09:35:08;;;;;;;10.77;3.08;;;23.70;56.00;;;;;;6119766;22;89500;-59
2024/02/16 09:37:36;;;;;;;10.60;3.80;;;23.70;56.00;;;;;;6121505;22;90212;-60
2024/02/16 09:40:03;;;;;;;9.68;3.08;;;23.80;56.10;;;;;;6119410;22;89953;-60
2024/02/16 09:42:30;;;;;;;8.35;2.42;;;23.70;56.30;;;;;;6147764;22;87313;-61
2024/02/16 09:44:55;;;;;;;8.43;2.60;;;23.80;56.00;;;;;;6120978;22;87529;-60
2024/02/16 09:47:23;;;;;;;24.17;3.53;;;23.70;55.90;;;;;;6143937;22;89227;-61
2024/02/16 09:49:49;;;;;;;9.13;3.20;;;23.80;56.10;;;;;;6150888;22;88648;-62
2024/02/16 09:52:14;;;;;;;7.78;3.10;;;23.80;56.90;;;;;;6149164;22;86997;-60
2024/02/16 09:54:40;;;;;;;9.05;3.33;;;23.80;56.80;;;;;;6149212;22;87371;-60
2024/02/16 09:57:07;;;;;;;7.55;3.17;;;23.80;56.90;;;;;;6147169;22;88584;-58
2024/02/16 09:59:32;;;;;;;9.00;3.20;;;23.80;56.70;;;;;;6123669;22;87704;-63
2024/02/16 10:02:03;;;;;;;7.97;3.28;;;23.80;57.00;;;;;;6149589;22;86835;-58
2024/02/16 10:04:30;;;;;;;6.80;2.90;;;23.80;57.20;;;;;;6123638;22;86902;-60
2024/02/16 10:06:57;;;;;;;9.20;2.90;;;23.80;57.00;;;;;;6116551;22;89732;-60
2024/02/16 10:09:23;;;;;;;9.82;2.58;;;23.80;57.40;;;;;;6138406;22;88115;-61
2024/02/16 10:11:50;;;;;;;8.57;3.42;;;23.80;57.70;;;;;;6127466;22;88470;-62
2024/02/16 10:14:19;;;;;;;19.38;3.95;;;23.90;57.80;;;;;;6146781;22;87263;-64
2024/02/16 10:16:46;;;;;;;16.33;3.40;;;23.90;57.80;;;;;;6143726;22;89799;-57
2024/02/16 10:19:11;;;;;;;13.35;3.25;;;23.90;58.20;;;;;;6140740;22;88163;-62
2024/02/16 10:21:39;;;;;;;16.20;3.15;;;23.90;57.90;;;;;;6121420;22;87375;-58
2024/02/16 10:24:09;;;;;;;13.27;3.15;;;24.00;57.00;;;;;;6139995;22;87370;-60
2024/02/16 10:26:38;;;;;;;8.40;3.00;;;24.00;57.10;;;;;;6113654;22;88451;-64
2024/02/16 10:29:19;;;;;;;11.77;2.83;;;24.00;57.20;;;;;;6147778;22;88052;-64
2024/02/16 10:31:48;;;;;;;17.33;4.18;;;24.00;57.40;;;;;;6148461;22;87336;-57
2024/02/16 10:34:16;;;;;;;10.63;3.00;;;24.00;57.50;;;;;;6122601;22;87550;-64
2024/02/16 10:36:42;;;;;;;9.90;2.97;;;24.10;57.70;;;;;;6149907;22;89701;-58
2024/02/16 10:39:11;;;;;;;9.93;3.05;;;24.10;57.40;;;;;;6150512;22;88695;-58
2024/02/16 10:41:44;;;;;;;;;;;24.10;58.30;;;;;;6148856;22;88149;-67
2024/02/16 10:44:10;;;;;;;11.82;3.47;;;24.10;58.50;;;;;;6124081;22;87618;-62
2024/02/16 10:46:37;;;;;;;13.73;3.42;;;24.20;58.70;;;;;;6121641;22;89743;-62
2024/02/16 10:49:06;;;;;;;14.38;3.33;;;24.20;57.40;;;;;;6117941;22;88210;-61
2024/02/16 10:51:38;;;;;;;8.55;2.53;;;24.10;57.10;;;;;;6148763;22;87409;-64
2024/02/16 10:54:04;;;;;;;12.10;4.55;;;24.00;57.20;;;;;;6147573;22;87324;-62
2024/02/16 10:56:38;;;;;;;17.20;3.95;;;24.00;58.80;;;;;;6144575;22;89041;-69
2024/02/16 10:59:05;;;;;;;17.85;4.18;;;24.00;58.90;;;;;;6121733;22;88584;-68
2024/02/16 11:01:41;;;;;;;15.38;4.07;;;24.00;59.70;;;;;;6122436;22;88037;-61
2024/02/16 11:04:12;;;;;;;9.52;3.58;;;24.10;60.30;;;;;;6117860;22;87416;-58
2024/02/16 11:06:49;;;;;;;18.08;4.93;;;24.10;60.40;;;;;;6121066;22;91265;-63
2024/02/16 11:09:46;;;;;;;14.75;3.80;;;24.00;60.60;;;;;;6096759;22;88364;-66
2024/02/16 11:12:15;;;;;;;16.25;4.45;;;24.00;60.80;;;;;;6119950;22;86983;-65
2024/02/16 11:14:42;;;;;;;13.33;3.43;;;24.00;61.40;;;;;;6122142;22;87743;-71
2024/02/16 11:17:28;;;;;;;13.63;4.18;;;24.10;60.70;;;;;;6148657;22;87957;-73
2024/02/16 11:19:55;;;;;;;13.82;3.70;;;24.10;59.30;;;;;;6123053;22;89314;-64
2024/02/16 11:22:21;;;;;;;12.30;3.65;;;24.10;58.50;;;;;;6149366;22;87577;-69
2024/02/16 11:24:48;;;;;;;29.98;4.40;;;24.10;58.60;;;;;;6141439;22;87324;-63
2024/02/16 11:27:21;;;;;;;8.65;3.53;;;24.10;58.20;;;;;;6148591;22;88649;-72
2024/02/16 11:29:48;;;;;;;11.57;3.67;;;24.10;58.20;;;;;;6111957;22;89325;-60
2024/02/16 11:32:14;;;;;;;17.10;4.15;;;24.10;58.80;;;;;;6118621;22;87463;-62
2024/02/16 11:34:40;;;;;;;15.02;4.45;;;24.10;59.60;;;;;;6119505;22;89506;-60
2024/02/16 11:37:08;;;;;;;14.63;3.70;;;24.20;59.80;;;;;;6146399;22;88191;-58
2024/02/16 11:39:37;;;;;;;12.15;4.22;;;24.20;60.30;;;;;;6119764;22;88759;-57
2024/02/16 11:42:12;;;;;;;10.73;3.20;;;24.20;60.50;;;;;;6143961;22;87641;-57
2024/02/16 11:44:50;;;;;;;13.75;3.83;;;24.10;61.40;;;;;;6148743;22;86910;-60
2024/02/16 11:47:25;;;;;;;13.85;4.25;;;24.20;61.30;;;;;;6115377;22;89279;-65
2024/02/16 11:50:20;;;;;;;13.35;3.80;;;24.20;61.60;;;;;;6147816;22;87653;-61
2024/02/16 11:52:48;;;;;;;14.55;3.95;;;24.20;61.60;;;;;;6086872;22;89318;-57
2024/02/16 11:55:15;;;;;;;14.07;4.85;;;24.20;61.60;;;;;;6146651;22;87897;-59
2024/02/16 11:57:44;;;;;;;14.35;3.55;;;24.20;62.00;;;;;;6145618;22;88490;-60
2024/02/16 12:00:14;;;;;;;;;;;24.20;61.70;;;;;;6147247;22;87662;-64
2024/02/16 12:02:40;;;;;;;15.63;3.38;;;24.20;61.90;;;;;;6122442;22;87863;-63
2024/02/16 12:05:07;;;;;;;12.93;3.83;;;24.30;61.50;;;;;;6147353;22;87769;-65
2024/02/16 12:07:36;;;;;;;19.08;4.00;;;24.20;61.40;;;;;;6120463;22;88485;-62
2024/02/16 12:10:06;;;;;;;17.10;3.72;;;24.30;62.10;;;;;;6140890;22;87806;-64
2024/02/16 12:12:34;;;;;;;15.50;3.35;;;24.30;61.70;;;;;;6147913;22;87314;-66
2024/02/16 12:15:01;;;;;;;19.33;3.92;;;24.30;62.00;;;;;;6147041;22;87524;-66
2024/02/16 12:17:26;;;;;;;16.73;4.75;;;24.30;62.00;;;;;;6120975;22;89030;-59
2024/02/16 12:19:52;;;;;;;24.05;4.85;;;24.30;62.10;;;;;;6152065;22;88075;-68
2024/02/16 12:22:19;;;;;;;18.30;4.20;;;24.30;62.10;;;;;;6118670;22;87330;-60
2024/02/16 12:24:46;;;;;;;15.10;3.30;;;24.30;62.40;;;;;;6117463;22;87586;-62
2024/02/16 12:27:12;;;;;;;21.48;3.47;;;24.30;61.10;;;;;;6149623;22;87982;-62
2024/02/16 12:29:41;;;;;;;12.32;4.30;;;24.40;61.10;;;;;;6144936;22;88568;-60
2024/02/16 12:32:09;;;;;;;15.52;4.07;;;24.40;61.50;;;;;;6147246;22;87840;-58
2024/02/16 12:34:37;;;;;;;21.63;3.78;;;24.40;61.30;;;;;;6148911;22;87688;-57
2024/02/16 12:37:07;;;;;;;13.57;4.22;;;24.30;60.60;;;;;;6148812;22;88149;-58
2024/02/16 12:39:34;;;;;;;15.40;3.25;;;24.30;61.30;;;;;;6141991;22;88187;-56
2024/02/16 12:42:00;;;;;;;12.32;3.53;;;24.30;61.60;;;;;;6144975;22;88378;-58
2024/02/16 12:44:25;;;;;;;8.82;3.65;;;24.30;61.50;;;;;;6149470;22;86901;-57
2024/02/16 12:46:51;;;;;;;8.85;3.67;;;24.30;61.50;;;;;;6124237;22;88632;-59
2024/02/16 12:49:21;;;;;;;14.68;4.68;;;24.20;62.50;;;;;;6119566;22;89829;-56
2024/02/16 12:51:48;;;;;;;13.50;3.17;;;24.20;61.50;;;;;;6149823;22;87184;-57
2024/02/16 12:54:16;;;;;;;10.93;2.83;;;24.30;61.50;;;;;;6146753;22;87388;-58
2024/02/16 12:56:44;;;;;;;12.30;3.53;;;24.30;60.60;;;;;;6151094;22;88073;-55
2024/02/16 12:59:10;;;;;;;11.32;3.03;;;24.30;59.20;;;;;;6151332;22;87711;-58
2024/02/16 13:01:36;;;;;;;8.63;3.45;;;24.20;58.80;;;;;;6151776;22;88074;-57
2024/02/16 13:04:02;;;;;;;12.93;3.38;;;24.20;58.10;;;;;;6122842;22;87014;-58
2024/02/16 13:06:28;;;;;;;8.45;3.22;;;24.20;57.30;;;;;;6149279;22;89468;-60
2024/02/16 13:08:54;;;;;;;14.38;3.70;;;24.30;58.00;;;;;;6146555;22;89305;-60
2024/02/16 13:11:19;;;;;;;10.48;3.40;;;24.20;58.40;;;;;;6124248;22;87080;-60
2024/02/16 13:13:45;;;;;;;11.60;3.00;;;24.20;58.50;;;;;;6124706;22;87202;-61
2024/02/16 13:16:11;;;;;;;8.77;3.00;;;24.10;58.50;;;;;;6144447;22;87590;-62
2024/02/16 13:18:37;;;;;;;7.95;2.90;;;24.10;58.40;;;;;;6120987;22;88652;-61
2024/02/16 13:21:03;;;;;;;9.63;2.67;;;24.10;58.40;;;;;;6121730;22;87401;-61
2024/02/16 13:23:31;;;;;;;9.73;3.80;;;24.10;58.60;;;;;;6121410;22;86744;-63
2024/02/16 13:25:58;;;;;;;9.25;3.47;;;24.10;58.60;;;;;;6147772;22;89512;-66
2024/02/16 13:28:26;;;;;;;7.73;3.00;;;24.10;58.80;;;;;;6122888;22;88820;-78
2024/02/16 13:30:52;;;;;;;6.45;2.97;;;24.10;59.10;;;;;;6117503;22;87972;-59
2024/02/16 13:33:18;;;;;;;16.58;3.53;;;24.10;59.90;;;;;;6141760;22;88426;-65